sensor_id;sensor_type;location;lat;lon;timestamp;temperature;humidity
7378;DHT22;3730;50.856;12.776;2023-05-24T09:41:36;11.20;35.00
7378;DHT22;3730;50.856;12.776;2023-05-24T09:44:02;11.20;33.10
7378;DHT22;3730;50.856;12.776;2023-05-24T09:46:28;11.20;33.70
7378;DHT22;3730;50.856;12.776;2023-05-24T09:49:00;11.60;33.10
7378;DHT22;3730;50.856;12.776;2023-05-24T09:51:36;11.50;31.90
7378;DHT22;3730;50.856;12.776;2023-05-24T09:54:02;11.80;30.30
7378;DHT22;3730;50.856;12.776;2023-05-24T09:56:29;11.70;31.20
7378;DHT22;3730;50.856;12.776;2023-05-24T09:58:55;11.90;27.80
7378;DHT22;3730;50.856;12.776;2023-05-24T10:01:22;11.80;27.20
7378;DHT22;3730;50.856;12.776;2023-05-24T10:03:53;12.00;28.30
7378;DHT22;3730;50.856;12.776;2023-05-24T10:06:19;12.10;27.50
7378;DHT22;3730;50.856;12.776;2023-05-24T10:08:46;12.20;24.90
7378;DHT22;3730;50.856;12.776;2023-05-24T10:11:13;12.20;23.90
7378;DHT22;3730;50.856;12.776;2023-05-24T10:16:06;12.20;24.60
7378;DHT22;3730;50.856;12.776;2023-05-24T10:18:32;11.90;24.20
7378;DHT22;3730;50.856;12.776;2023-05-24T10:20:58;11.80;25.40
7378;DHT22;3730;50.856;12.776;2023-05-24T10:23:28;11.80;23.60
7378;DHT22;3730;50.856;12.776;2023-05-24T10:26:06;12.00;24.00
7378;DHT22;3730;50.856;12.776;2023-05-24T10:28:36;11.80;25.00
7378;DHT22;3730;50.856;12.776;2023-05-24T10:31:10;11.70;24.70
7378;DHT22;3730;50.856;12.776;2023-05-24T10:33:37;12.10;26.90
7378;DHT22;3730;50.856;12.776;2023-05-24T10:36:05;12.10;26.20
7378;DHT22;3730;50.856;12.776;2023-05-24T10:40:58;12.10;23.90
7378;DHT22;3730;50.856;12.776;2023-05-24T10:43:25;12.10;23.90
7378;DHT22;3730;50.856;12.776;2023-05-24T10:53:20;12.00;26.10
7378;DHT22;3730;50.856;12.776;2023-05-24T10:58:21;12.10;26.40
7378;DHT22;3730;50.856;12.776;2023-05-24T11:00:50;12.30;26.00
7378;DHT22;3730;50.856;12.776;2023-05-24T11:03:17;12.80;19.70
7378;DHT22;3730;50.856;12.776;2023-05-24T11:08:30;13.00;19.60
7378;DHT22;3730;50.856;12.776;2023-05-24T11:13:37;13.00;20.80
7378;DHT22;3730;50.856;12.776;2023-05-24T11:16:04;13.20;18.20
7378;DHT22;3730;50.856;12.776;2023-05-24T11:18:30;13.10;18.20
7378;DHT22;3730;50.856;12.776;2023-05-24T11:20:58;13.30;16.90
7378;DHT22;3730;50.856;12.776;2023-05-24T11:23:24;13.30;16.60
7378;DHT22;3730;50.856;12.776;2023-05-24T11:28:17;13.50;18.40
7378;DHT22;3730;50.856;12.776;2023-05-24T11:30:44;13.50;15.00
7378;DHT22;3730;50.856;12.776;2023-05-24T11:33:20;13.40;15.30
7378;DHT22;3730;50.856;12.776;2023-05-24T11:35:49;13.70;16.10
7378;DHT22;3730;50.856;12.776;2023-05-24T11:38:16;13.70;16.00
7378;DHT22;3730;50.856;12.776;2023-05-24T12:45:06;15.70;1.00
7378;DHT22;3730;50.856;12.776;2023-05-24T12:47:32;15.90;1.00
7378;DHT22;3730;50.856;12.776;2023-05-24T12:54:50;16.40;1.00
7378;DHT22;3730;50.856;12.776;2023-05-24T12:57:16;16.40;1.00
7378;DHT22;3730;50.856;12.776;2023-05-24T13:02:07;16.30;1.00
7378;DHT22;3730;50.856;12.776;2023-05-24T13:04:33;16.10;1.00
7378;DHT22;3730;50.856;12.776;2023-05-24T13:07:01;15.80;1.00
7378;DHT22;3730;50.856;12.776;2023-05-24T13:09:27;15.60;1.00
7378;DHT22;3730;50.856;12.776;2023-05-24T13:11:54;15.70;1.00
7378;DHT22;3730;50.856;12.776;2023-05-24T13:14:19;15.60;1.00
7378;DHT22;3730;50.856;12.776;2023-05-24T13:16:45;16.30;1.00
7378;DHT22;3730;50.856;12.776;2023-05-24T13:19:11;16.00;1.00
7378;DHT22;3730;50.856;12.776;2023-05-24T13:21:37;16.10;1.00
7378;DHT22;3730;50.856;12.776;2023-05-24T13:26:30;16.60;1.00
7378;DHT22;3730;50.856;12.776;2023-05-24T13:29:02;16.80;1.00
7378;DHT22;3730;50.856;12.776;2023-05-24T13:38:46;17.10;1.00
7378;DHT22;3730;50.856;12.776;2023-05-24T13:43:38;17.10;1.00
7378;DHT22;3730;50.856;12.776;2023-05-24T13:46:04;17.30;1.00
7378;DHT22;3730;50.856;12.776;2023-05-24T13:50:55;16.80;1.00
7378;DHT22;3730;50.856;12.776;2023-05-24T13:53:21;16.80;1.00
7378;DHT22;3730;50.856;12.776;2023-05-24T13:55:47;16.60;1.00
7378;DHT22;3730;50.856;12.776;2023-05-24T14:00:40;16.70;1.00
7378;DHT22;3730;50.856;12.776;2023-05-24T14:03:06;16.80;1.00
7378;DHT22;3730;50.856;12.776;2023-05-24T14:05:32;17.20;1.00
7378;DHT22;3730;50.856;12.776;2023-05-24T14:07:58;17.20;1.00
7378;DHT22;3730;50.856;12.776;2023-05-24T14:30:00;17.60;1.00
7378;DHT22;3730;50.856;12.776;2023-05-24T14:32:25;17.40;1.00
7378;DHT22;3730;50.856;12.776;2023-05-24T14:34:51;17.10;1.00
7378;DHT22;3730;50.856;12.776;2023-05-24T14:37:16;16.90;1.00
7378;DHT22;3730;50.856;12.776;2023-05-24T14:39:43;17.10;1.00
7378;DHT22;3730;50.856;12.776;2023-05-24T14:42:08;17.20;1.00
7378;DHT22;3730;50.856;12.776;2023-05-24T14:44:34;17.30;1.00
7378;DHT22;3730;50.856;12.776;2023-05-24T14:46:59;17.30;1.00
7378;DHT22;3730;50.856;12.776;2023-05-24T14:49:25;17.50;1.00
7378;DHT22;3730;50.856;12.776;2023-05-24T14:51:51;17.30;1.00
7378;DHT22;3730;50.856;12.776;2023-05-24T14:54:16;17.30;1.00
7378;DHT22;3730;50.856;12.776;2023-05-24T14:56:42;17.60;1.00
7378;DHT22;3730;50.856;12.776;2023-05-24T14:59:08;17.60;1.00
7378;DHT22;3730;50.856;12.776;2023-05-24T15:01:33;17.90;1.00
7378;DHT22;3730;50.856;12.776;2023-05-24T15:03:59;18.00;1.00
7378;DHT22;3730;50.856;12.776;2023-05-24T15:13:47;18.20;1.00
7378;DHT22;3730;50.856;12.776;2023-05-24T15:16:12;18.20;1.00
7378;DHT22;3730;50.856;12.776;2023-05-24T15:18:38;18.00;1.00
7378;DHT22;3730;50.856;12.776;2023-05-24T15:21:04;18.00;1.00
7378;DHT22;3730;50.856;12.776;2023-05-24T15:23:29;18.30;1.00
7378;DHT22;3730;50.856;12.776;2023-05-24T15:28:21;18.60;1.00
7378;DHT22;3730;50.856;12.776;2023-05-24T15:38:07;18.90;1.00
7378;DHT22;3730;50.856;12.776;2023-05-24T15:40:32;18.80;1.00
7378;DHT22;3730;50.856;12.776;2023-05-24T15:42:58;18.80;1.00
7378;DHT22;3730;50.856;12.776;2023-05-24T15:45:24;18.70;1.00
7378;DHT22;3730;50.856;12.776;2023-05-24T15:47:50;18.60;1.00
7378;DHT22;3730;50.856;12.776;2023-05-24T15:50:15;18.60;1.00
7378;DHT22;3730;50.856;12.776;2023-05-24T15:52:41;18.60;1.00
7378;DHT22;3730;50.856;12.776;2023-05-24T15:55:07;18.60;1.00
7378;DHT22;3730;50.856;12.776;2023-05-24T15:57:33;18.40;1.00
7378;DHT22;3730;50.856;12.776;2023-05-24T15:59:58;18.40;1.00
7378;DHT22;3730;50.856;12.776;2023-05-24T16:02:24;18.50;1.00
7378;DHT22;3730;50.856;12.776;2023-05-24T16:04:50;18.40;1.00
7378;DHT22;3730;50.856;12.776;2023-05-24T16:07:15;18.20;1.00
7378;DHT22;3730;50.856;12.776;2023-05-24T16:09:43;18.20;1.00
7378;DHT22;3730;50.856;12.776;2023-05-24T16:12:11;18.10;1.00
7378;DHT22;3730;50.856;12.776;2023-05-24T16:14:36;17.80;1.00
7378;DHT22;3730;50.856;12.776;2023-05-24T16:17:02;17.90;1.00
7378;DHT22;3730;50.856;12.776;2023-05-24T16:24:21;17.80;1.00
7378;DHT22;3730;50.856;12.776;2023-05-24T16:26:46;17.50;1.00
7378;DHT22;3730;50.856;12.776;2023-05-24T16:29:12;17.40;1.00
7378;DHT22;3730;50.856;12.776;2023-05-24T16:31:39;17.70;1.00
7378;DHT22;3730;50.856;12.776;2023-05-24T16:34:05;17.60;1.00
7378;DHT22;3730;50.856;12.776;2023-05-24T18:16:29;15.30;1.00
7378;DHT22;3730;50.856;12.776;2023-05-24T18:18:55;15.40;1.00
7378;DHT22;3730;50.856;12.776;2023-05-24T18:21:21;15.20;1.00
7378;DHT22;3730;50.856;12.776;2023-05-24T18:23:47;15.40;1.00
7378;DHT22;3730;50.856;12.776;2023-05-24T18:26:12;15.00;1.00
7378;DHT22;3730;50.856;12.776;2023-05-24T19:41:51;13.50;1.00
7378;DHT22;3730;50.856;12.776;2023-05-24T19:44:17;13.20;1.00
7378;DHT22;3730;50.856;12.776;2023-05-24T19:49:09;12.80;5.50
7378;DHT22;3730;50.856;12.776;2023-05-24T19:51:36;12.80;6.50
7378;DHT22;3730;50.856;12.776;2023-05-24T19:54:02;13.10;7.90
7378;DHT22;3730;50.856;12.776;2023-05-24T19:58:53;12.80;12.20
7378;DHT22;3730;50.856;12.776;2023-05-24T20:01:19;12.70;14.50
7378;DHT22;3730;50.856;12.776;2023-05-24T20:03:45;12.60;18.00
7378;DHT22;3730;50.856;12.776;2023-05-24T20:06:14;12.60;18.50
7378;DHT22;3730;50.856;12.776;2023-05-24T20:08:40;12.40;18.40
7378;DHT22;3730;50.856;12.776;2023-05-24T20:13:31;12.30;20.30
7378;DHT22;3730;50.856;12.776;2023-05-24T20:15:57;12.00;22.30
7378;DHT22;3730;50.856;12.776;2023-05-24T20:18:22;12.20;24.30
7378;DHT22;3730;50.856;12.776;2023-05-24T20:28:06;11.80;28.20
7378;DHT22;3730;50.856;12.776;2023-05-24T20:30:33;11.60;29.10
7378;DHT22;3730;50.856;12.776;2023-05-24T20:32:58;11.60;29.90
7378;DHT22;3730;50.856;12.776;2023-05-24T20:35:24;11.90;30.20
7378;DHT22;3730;50.856;12.776;2023-05-24T20:37:49;11.90;31.10
7378;DHT22;3730;50.856;12.776;2023-05-24T20:40:22;11.80;31.70
7378;DHT22;3730;50.856;12.776;2023-05-24T20:42:51;11.70;33.20
7378;DHT22;3730;50.856;12.776;2023-05-24T20:45:18;11.80;34.90
7378;DHT22;3730;50.856;12.776;2023-05-24T20:47:44;11.70;36.40
7378;DHT22;3730;50.856;12.776;2023-05-24T20:50:11;11.60;36.80
7378;DHT22;3730;50.856;12.776;2023-05-24T20:52:37;11.60;37.30
7378;DHT22;3730;50.856;12.776;2023-05-24T20:55:03;11.60;38.20
7378;DHT22;3730;50.856;12.776;2023-05-24T20:59:55;11.60;39.10
7378;DHT22;3730;50.856;12.776;2023-05-24T21:02:20;11.40;40.30
7378;DHT22;3730;50.856;12.776;2023-05-24T21:07:12;11.50;44.60
7378;DHT22;3730;50.856;12.776;2023-05-24T21:09:37;11.40;46.00
7378;DHT22;3730;50.856;12.776;2023-05-24T21:31:35;11.20;49.30
7378;DHT22;3730;50.856;12.776;2023-05-24T21:34:01;11.10;49.80
7378;DHT22;3730;50.856;12.776;2023-05-24T21:38:52;10.90;51.60
7378;DHT22;3730;50.856;12.776;2023-05-24T21:41:18;10.70;51.20
7378;DHT22;3730;50.856;12.776;2023-05-24T21:48:36;10.70;53.80
7378;DHT22;3730;50.856;12.776;2023-05-24T21:53:27;10.80;55.20
7378;DHT22;3730;50.856;12.776;2023-05-24T21:55:53;10.90;56.80
7378;DHT22;3730;50.856;12.776;2023-05-24T22:00:45;10.80;57.80
7378;DHT22;3730;50.856;12.776;2023-05-24T22:03:11;10.90;58.40
7378;DHT22;3730;50.856;12.776;2023-05-24T22:08:02;10.80;59.60
7378;DHT22;3730;50.856;12.776;2023-05-24T22:10:28;10.30;59.60
7378;DHT22;3730;50.856;12.776;2023-05-24T22:12:53;10.70;60.50
7378;DHT22;3730;50.856;12.776;2023-05-24T22:15:19;10.40;61.00
7378;DHT22;3730;50.856;12.776;2023-05-24T22:17:45;10.70;62.10
7378;DHT22;3730;50.856;12.776;2023-05-24T22:22:37;10.50;64.40
7378;DHT22;3730;50.856;12.776;2023-05-24T22:25:15;10.40;64.00
7378;DHT22;3730;50.856;12.776;2023-05-24T22:27:46;10.40;64.90
7378;DHT22;3730;50.856;12.776;2023-05-24T22:30:13;10.30;67.10
7378;DHT22;3730;50.856;12.776;2023-05-24T22:32:38;10.30;68.00
7378;DHT22;3730;50.856;12.776;2023-05-24T22:35:05;10.40;68.70
7378;DHT22;3730;50.856;12.776;2023-05-24T22:37:31;10.20;68.10
7378;DHT22;3730;50.856;12.776;2023-05-24T22:39:56;10.20;68.80
7378;DHT22;3730;50.856;12.776;2023-05-24T22:42:22;10.40;69.50
7378;DHT22;3730;50.856;12.776;2023-05-24T22:44:48;10.50;69.80
7378;DHT22;3730;50.856;12.776;2023-05-24T22:47:14;10.00;70.00
7378;DHT22;3730;50.856;12.776;2023-05-24T22:49:41;10.20;70.90
7378;DHT22;3730;50.856;12.776;2023-05-24T22:52:07;10.30;71.80
7378;DHT22;3730;50.856;12.776;2023-05-24T22:54:36;10.20;71.80
7378;DHT22;3730;50.856;12.776;2023-05-24T22:57:02;10.20;71.80
7378;DHT22;3730;50.856;12.776;2023-05-24T22:59:27;10.20;73.00
7378;DHT22;3730;50.856;12.776;2023-05-24T23:01:53;10.40;74.10
7378;DHT22;3730;50.856;12.776;2023-05-24T23:04:19;10.00;74.30
7378;DHT22;3730;50.856;12.776;2023-05-24T23:06:44;10.20;74.80
7378;DHT22;3730;50.856;12.776;2023-05-24T23:09:10;9.90;76.40
7378;DHT22;3730;50.856;12.776;2023-05-24T23:16:35;10.00;76.40
7378;DHT22;3730;50.856;12.776;2023-05-24T23:21:37;9.80;77.20
7378;DHT22;3730;50.856;12.776;2023-05-24T23:26:30;9.80;78.00
7378;DHT22;3730;50.856;12.776;2023-05-24T23:31:22;9.90;77.90
7378;DHT22;3730;50.856;12.776;2023-05-24T23:33:47;9.80;77.50
7378;DHT22;3730;50.856;12.776;2023-05-24T23:36:13;9.70;78.30
7378;DHT22;3730;50.856;12.776;2023-05-24T23:38:38;9.80;79.60
7378;DHT22;3730;50.856;12.776;2023-05-24T23:41:04;9.80;78.80
